Time;durP1;ratioP1;P1;durP2;ratioP2;P2;SDS_P1;SDS_P2;PMS_P1;PMS_P2;Temp;Humidity;BMP_temperature;BMP_pressure;BME280_temperature;BME280_humidity;BME280_pressure;Samples;Min_cycle;Max_cycle;Signal;HPM_P1;HPM_P2
2022/11/29 00:01:57;;;;;;;0.10;0.10;;;;;;;7.11;100.00;98460.88;4959135;28;20713;-61
2022/11/29 00:04:24;;;;;;;0.00;0.00;;;;;;;7.11;100.00;98464.31;4955628;28;20224;-60
2022/11/29 00:06:50;;;;;;;0.00;0.00;;;;;;;7.11;100.00;98463.47;4959230;28;20233;-62
2022/11/29 00:09:17;;;;;;;0.00;0.00;;;;;;;7.05;100.00;98460.44;4957077;28;20233;-61
2022/11/29 00:14:29;;;;;;;0.00;0.00;;;;;;;7.11;100.00;98458.28;4954991;28;20241;-61
2022/11/29 00:17:00;;;;;;;0.00;0.00;;;;;;;7.07;100.00;98461.13;4957801;28;20230;-61
2022/11/29 00:19:27;;;;;;;0.00;0.00;;;;;;;7.07;100.00;98452.53;4955752;28;20227;-61
2022/11/29 00:21:54;;;;;;;0.10;0.10;;;;;;;7.06;100.00;98450.91;4957065;28;20757;-60
2022/11/29 00:24:21;;;;;;;0.00;0.00;;;;;;;7.07;100.00;98458.53;4954656;28;20230;-62
2022/11/29 00:26:48;;;;;;;0.00;0.00;;;;;;;7.05;100.00;98457.84;4959949;28;20933;-60
2022/11/29 00:29:15;;;;;;;0.00;0.00;;;;;;;7.05;100.00;98459.63;4954242;28;20226;-61
2022/11/29 00:31:42;;;;;;;0.00;0.00;;;;;;;7.08;100.00;98455.00;4953935;28;20249;-60
2022/11/29 00:34:11;;;;;;;0.00;0.00;;;;;;;7.09;100.00;98454.03;4957434;28;20705;-62
2022/11/29 00:36:38;;;;;;;0.00;0.00;;;;;;;7.07;100.00;98461.13;4954732;28;20241;-60
2022/11/29 00:39:06;;;;;;;0.00;0.00;;;;;;;7.02;100.00;98455.53;4957511;28;20226;-61
2022/11/29 00:41:32;;;;;;;0.00;0.00;;;;;;;7.02;100.00;98455.53;4956735;28;20236;-61
2022/11/29 00:44:00;;;;;;;0.10;0.10;;;;;;;7.03;100.00;98456.34;4958621;28;20861;-61
2022/11/29 00:46:26;;;;;;;0.10;0.10;;;;;;;7.04;100.00;98458.00;4954312;28;20234;-61
2022/11/29 00:48:53;;;;;;;0.00;0.00;;;;;;;7.04;100.00;98463.19;4948983;28;20236;-62
2022/11/29 00:51:21;;;;;;;0.00;0.00;;;;;;;6.99;100.00;98458.38;4952962;28;20301;-61
2022/11/29 00:53:47;;;;;;;0.00;0.00;;;;;;;7.02;100.00;98462.50;4955756;28;20234;-61
2022/11/29 00:56:15;;;;;;;0.00;0.00;;;;;;;7.04;100.00;98458.00;4956694;28;20234;-61
2022/11/29 00:58:42;;;;;;;0.10;0.10;;;;;;;7.01;100.00;98459.06;4956225;28;20236;-61
2022/11/29 01:01:09;;;;;;;0.00;0.00;;;;;;;6.99;100.00;98460.16;4955068;28;20233;-61
2022/11/29 01:03:36;;;;;;;0.10;0.10;;;;;;;6.97;100.00;98462.88;4952183;28;20314;-60
2022/11/29 01:06:04;;;;;;;0.00;0.00;;;;;;;6.93;100.00;98464.09;4956556;28;20243;-61
2022/11/29 01:08:32;;;;;;;0.00;0.00;;;;;;;6.94;100.00;98468.31;4955155;28;20221;-62
2022/11/29 01:11:07;;;;;;;0.00;0.00;;;;;;;6.93;100.00;98461.50;4957338;28;20710;-61
2022/11/29 01:13:35;;;;;;;0.00;0.00;;;;;;;6.91;100.00;98463.41;4953824;28;20225;-61
2022/11/29 01:16:02;;;;;;;0.00;0.00;;;;;;;6.90;100.00;98470.38;4957361;28;20709;-60
2022/11/29 01:18:29;;;;;;;0.00;0.00;;;;;;;6.90;100.00;98466.94;4954474;28;20226;-61
2022/11/29 01:20:58;;;;;;;0.00;0.00;;;;;;;6.87;100.00;98465.44;4957999;28;20241;-61
2022/11/29 01:23:24;;;;;;;0.00;0.00;;;;;;;6.92;100.00;98462.44;4954535;28;20590;-61
2022/11/29 01:26:01;;;;;;;0.00;0.00;;;;;;;6.85;100.00;98469.13;4962301;28;20233;-60
2022/11/29 01:28:28;;;;;;;0.00;0.00;;;;;;;6.88;100.00;98466.28;4962551;28;20287;-62
2022/11/29 01:30:55;;;;;;;0.00;0.00;;;;;;;6.85;100.00;98471.75;4964460;28;20240;-61
2022/11/29 01:33:22;;;;;;;0.00;0.00;;;;;;;6.85;100.00;98469.94;4959076;28;20230;-61
2022/11/29 01:35:49;;;;;;;0.00;0.00;;;;;;;6.82;100.00;98466.81;4964494;28;20285;-61
2022/11/29 01:38:16;;;;;;;0.00;0.00;;;;;;;6.84;100.00;98468.31;4965045;28;20221;-62
2022/11/29 01:40:42;;;;;;;0.00;0.00;;;;;;;6.80;100.00;98466.91;4961481;28;20230;-62
2022/11/29 01:43:17;;;;;;;0.00;0.00;;;;;;;6.79;100.00;98467.88;4964632;28;20217;-62
2022/11/29 01:45:44;;;;;;;0.00;0.00;;;;;;;6.78;100.00;98468.81;4962097;28;20237;-62
2022/11/29 01:48:13;;;;;;;0.00;0.00;;;;;;;6.78;100.00;98464.47;4963913;28;20321;-62
2022/11/29 01:50:41;;;;;;;0.00;0.00;;;;;;;6.80;100.00;98469.50;4962151;28;20263;-62
2022/11/29 01:53:09;;;;;;;0.00;0.00;;;;;;;6.81;100.00;98472.94;4963108;28;20218;-62
2022/11/29 01:55:38;;;;;;;0.00;0.00;;;;;;;6.78;100.00;98471.41;4960893;28;20246;-62
2022/11/29 01:58:07;;;;;;;0.00;0.00;;;;;;;6.81;100.00;98471.16;4963626;28;20296;-62
2022/11/29 02:00:36;;;;;;;0.00;0.00;;;;;;;6.82;100.00;98474.59;4962705;28;20231;-62
2022/11/29 02:03:09;;;;;;;0.00;0.00;;;;;;;6.79;100.00;98471.31;4962998;28;20677;-61
2022/11/29 02:05:39;;;;;;;0.07;0.07;;;;;;;6.81;100.00;98468.56;4961629;28;20331;-61
2022/11/29 02:08:06;;;;;;;0.00;0.00;;;;;;;6.80;100.00;98466.91;4965103;28;20238;-62
2022/11/29 02:10:48;;;;;;;0.00;0.00;;;;;;;6.76;100.00;98468.97;4947331;28;20924;-61
2022/11/29 02:13:25;;;;;;;0.00;0.00;;;;;;;6.77;100.00;98462.00;4957661;28;20230;-61
2022/11/29 02:16:00;;;;;;;0.00;0.00;;;;;;;6.78;100.00;98469.66;4958321;28;20273;-61
2022/11/29 02:18:35;;;;;;;0.10;0.10;;;;;;;6.78;100.00;98469.66;4960462;28;20225;-61
2022/11/29 02:21:24;;;;;;;0.00;0.00;;;;;;;6.78;100.00;98467.06;4966046;28;20225;-61
2022/11/29 02:24:22;;;;;;;0.00;0.00;;;;;;;6.78;100.00;98463.63;4961311;28;20265;-62
2022/11/29 02:27:11;;;;;;;0.00;0.00;;;;;;;6.74;100.00;98460.50;4963494;28;20783;-61
2022/11/29 02:30:08;;;;;;;0.10;0.10;;;;;;;6.74;100.00;98462.25;4945447;28;20237;-61
2022/11/29 02:33:19;;;;;;;0.00;0.00;;;;;;;6.72;100.00;98456.38;4962945;28;20590;-61
2022/11/29 02:36:07;;;;;;;0.00;0.00;;;;;;;6.68;100.00;98457.59;4963068;28;20237;-62
2022/11/29 02:38:58;;;;;;;0.00;0.00;;;;;;;6.68;100.00;98462.78;4963017;28;20312;-61
2022/11/29 02:41:40;;;;;;;0.00;0.00;;;;;;;6.71;100.00;98454.72;4962213;28;20732;-61
2022/11/29 02:44:22;;;;;;;0.00;0.00;;;;;;;6.65;100.00;98453.50;4964820;28;20230;-62
2022/11/29 02:47:03;;;;;;;0.10;0.10;;;;;;;6.65;100.00;98464.69;4960815;28;20241;-62
2022/11/29 02:49:45;;;;;;;0.00;0.00;;;;;;;6.61;100.00;98462.47;4963008;28;20217;-61
2022/11/29 02:52:19;;;;;;;0.00;0.00;;;;;;;6.64;100.00;98463.03;4964477;28;20229;-62
2022/11/29 02:54:52;;;;;;;0.00;0.00;;;;;;;6.62;100.00;98462.34;4962839;28;20225;-61
2022/11/29 02:57:24;;;;;;;0.00;0.00;;;;;;;6.65;100.00;98459.50;4962968;28;20645;-61
2022/11/29 03:00:00;;;;;;;0.00;0.00;;;;;;;6.65;100.00;98459.50;4964173;28;20241;-62
2022/11/29 03:02:31;;;;;;;0.00;0.00;;;;;;;6.67;100.00;98463.72;4962319;28;20253;-62
2022/11/29 03:05:06;;;;;;;0.00;0.00;;;;;;;6.66;100.00;98455.13;4963843;28;20241;-61
2022/11/29 03:07:41;;;;;;;0.00;0.00;;;;;;;6.70;100.00;98460.88;4962786;28;20272;-62
2022/11/29 03:10:20;;;;;;;0.00;0.00;;;;;;;6.68;100.00;98462.78;4964544;28;20282;-61
2022/11/29 03:12:49;;;;;;;0.00;0.00;;;;;;;6.68;100.00;98467.97;4963108;28;20229;-62
2022/11/29 03:15:27;;;;;;;0.00;0.00;;;;;;;6.65;100.00;98471.66;4951234;28;20230;-62
2022/11/29 03:18:03;;;;;;;0.00;0.00;;;;;;;6.65;100.00;98469.06;4963821;28;20347;-62
2022/11/29 03:20:38;;;;;;;0.00;0.00;;;;;;;6.63;100.00;98471.75;4960875;28;20888;-62
2022/11/29 03:23:21;;;;;;;0.00;0.00;;;;;;;6.63;100.00;98479.53;4964586;28;20237;-61
2022/11/29 03:25:54;;;;;;;0.00;0.00;;;;;;;6.61;100.00;98478.84;4962825;28;20226;-62
2022/11/29 03:28:26;;;;;;;0.00;0.00;;;;;;;6.61;100.00;98486.63;4962902;28;20285;-62
2022/11/29 03:30:58;;;;;;;0.00;0.00;;;;;;;6.61;100.00;98484.03;4964662;28;20314;-62
2022/11/29 03:33:37;;;;;;;0.00;0.00;;;;;;;6.61;100.00;98489.22;4961966;28;20233;-61
2022/11/29 03:36:09;;;;;;;0.00;0.00;;;;;;;6.61;100.00;98488.41;4980142;28;20241;-61
2022/11/29 03:38:40;;;;;;;0.00;0.00;;;;;;;6.61;100.00;98497.00;4962282;28;20706;-61
2022/11/29 03:41:18;;;;;;;0.00;0.00;;;;;;;6.63;100.00;98499.50;4965632;28;20225;-60
2022/11/29 03:43:50;;;;;;;0.00;0.00;;;;;;;6.63;100.00;98494.28;4964874;28;20234;-61
2022/11/29 03:46:27;;;;;;;0.00;0.00;;;;;;;6.61;100.00;98496.19;4964445;28;20276;-61
2022/11/29 03:49:00;;;;;;;0.03;0.03;;;;;;;6.54;100.00;98498.47;4968402;28;20229;-61
2022/11/29 03:51:38;;;;;;;0.00;0.00;;;;;;;6.57;100.00;98502.59;4965205;28;20289;-61
2022/11/29 03:54:10;;;;;;;0.00;0.00;;;;;;;6.59;100.00;98490.31;4967916;28;20230;-61
2022/11/29 03:56:40;;;;;;;0.00;0.00;;;;;;;6.57;100.00;98495.63;4965660;28;20264;-61
2022/11/29 03:59:20;;;;;;;0.00;0.00;;;;;;;6.53;100.00;98502.00;4966442;28;20681;-61
2022/11/29 04:02:02;;;;;;;0.00;0.00;;;;;;;6.56;100.00;98501.75;4965297;28;20245;-61
2022/11/29 04:05:10;;;;;;;0.00;0.00;;;;;;;6.55;100.00;98500.13;4965110;28;21041;-62
2022/11/29 04:07:59;;;;;;;0.00;0.00;;;;;;;6.55;100.00;98499.31;4965302;28;20276;-61
2022/11/29 04:10:52;;;;;;;0.00;0.00;;;;;;;6.51;100.00;98506.50;4965297;28;20643;-61
2022/11/29 04:13:48;;;;;;;0.00;0.00;;;;;;;6.56;100.00;98504.34;4965405;28;20224;-61
2022/11/29 04:16:49;;;;;;;0.00;0.00;;;;;;;6.57;100.00;98500.00;4967882;28;20244;-61
2022/11/29 04:19:59;;;;;;;0.00;0.00;;;;;;;6.56;100.00;98495.75;4965045;28;20236;-61
2022/11/29 04:22:49;;;;;;;0.00;0.00;;;;;;;6.54;100.00;98497.66;4962154;28;20230;-61
2022/11/29 04:25:43;;;;;;;0.07;0.07;;;;;;;6.52;100.00;98502.97;4966765;28;20226;-61
2022/11/29 04:28:35;;;;;;;0.00;0.00;;;;;;;6.52;100.00;98502.97;4965427;28;20233;-61
2022/11/29 04:31:13;;;;;;;0.00;0.00;;;;;;;6.50;100.00;98505.69;5149982;23;20420;-61
2022/11/29 04:34:12;;;;;;;0.00;0.00;;;;;;;6.49;100.00;98501.47;4961840;28;20249;-62
2022/11/29 04:37:12;;;;;;;0.00;0.00;;;;;;;6.52;100.00;98509.94;4958108;28;20237;-61
2022/11/29 04:40:09;;;;;;;0.07;0.07;;;;;;;6.54;100.00;98514.03;4964733;28;20726;-60
2022/11/29 04:43:08;;;;;;;0.00;0.00;;;;;;;6.56;100.00;98513.91;4963941;28;20222;-60
2022/11/29 04:46:13;;;;;;;0.00;0.00;;;;;;;6.53;100.00;98517.56;4974139;23;20241;-55
2022/11/29 04:49:05;;;;;;;0.00;0.00;;;;;;;6.47;100.00;98524.09;4964295;28;20233;-54
2022/11/29 04:51:49;;;;;;;0.00;0.00;;;;;;;6.47;100.00;98524.09;4964043;28;20230;-55
2022/11/29 04:54:23;;;;;;;0.00;0.00;;;;;;;6.49;100.00;98523.97;4965502;28;20586;-54
2022/11/29 04:56:52;;;;;;;0.00;0.00;;;;;;;6.45;100.00;98523.41;4964484;28;20260;-55
2022/11/29 04:59:26;;;;;;;0.00;0.00;;;;;;;6.49;100.00;98522.19;4964723;28;20230;-54
2022/11/29 05:02:05;;;;;;;0.07;0.07;;;;;;;6.49;100.00;98527.38;4966404;28;20654;-55
2022/11/29 05:04:41;;;;;;;0.00;0.00;;;;;;;6.48;100.00;98520.56;4964348;28;20237;-55
2022/11/29 05:07:16;;;;;;;0.00;0.00;;;;;;;6.49;100.00;98529.16;4956169;28;20238;-56
2022/11/29 05:10:00;;;;;;;0.00;0.00;;;;;;;6.48;100.00;98540.47;4964830;28;20237;-55
2022/11/29 05:12:32;;;;;;;0.00;0.00;;;;;;;6.50;100.00;98536.81;4963955;28;20280;-56
2022/11/29 05:15:27;;;;;;;0.10;0.10;;;;;;;6.52;100.00;98536.66;4966912;28;20682;-56
2022/11/29 05:18:06;;;;;;;0.00;0.00;;;;;;;6.50;100.00;98536.81;4964919;28;20246;-56
2022/11/29 05:20:44;;;;;;;0.10;0.10;;;;;;;6.51;100.00;98540.22;4963838;28;20224;-56
2022/11/29 05:23:32;;;;;;;0.00;0.00;;;;;;;6.48;100.00;98550.84;4966948;28;20233;-55
2022/11/29 05:26:04;;;;;;;0.00;0.00;;;;;;;6.44;100.00;98547.69;4956251;28;20229;-56
2022/11/29 05:28:39;;;;;;;0.00;0.00;;;;;;;6.49;100.00;98549.88;4963426;28;20227;-56
2022/11/29 05:31:28;;;;;;;0.10;0.10;;;;;;;6.50;100.00;98547.19;4951951;28;20230;-56
2022/11/29 05:34:34;;;;;;;0.00;0.00;;;;;;;6.53;100.00;98553.06;4944150;28;20238;-56
2022/11/29 05:37:10;;;;;;;0.00;0.00;;;;;;;6.54;100.00;98549.53;4933229;28;20237;-56
2022/11/29 05:39:47;;;;;;;0.00;0.00;;;;;;;6.53;100.00;98548.69;4964149;28;20239;-56
2022/11/29 05:42:35;;;;;;;0.00;0.00;;;;;;;6.53;100.00;98556.47;4957937;28;20233;-57
2022/11/29 05:45:10;;;;;;;0.00;0.00;;;;;;;6.52;100.00;98549.63;4958233;28;20292;-57
2022/11/29 05:47:53;;;;;;;0.00;0.00;;;;;;;6.52;100.00;98547.03;4963612;28;22734;-56
2022/11/29 05:50:26;;;;;;;0.03;0.03;;;;;;;6.54;100.00;98544.34;4963560;28;20229;-56
2022/11/29 05:53:00;;;;;;;0.00;0.00;;;;;;;6.51;100.00;98550.59;4966245;28;20293;-55
2022/11/29 05:55:40;;;;;;;0.00;0.00;;;;;;;6.54;100.00;98549.53;4963932;28;20230;-56
2022/11/29 05:58:18;;;;;;;0.00;0.00;;;;;;;6.53;100.00;98563.44;4966355;28;20324;-56
2022/11/29 06:00:49;;;;;;;0.00;0.00;;;;;;;6.54;100.00;98554.72;4964320;28;20288;-55
2022/11/29 06:03:29;;;;;;;0.00;0.00;;;;;;;6.56;100.00;98565.78;4966275;28;20229;-56
2022/11/29 06:06:00;;;;;;;0.00;0.00;;;;;;;6.54;100.00;98565.09;4963436;28;20645;-56
2022/11/29 06:08:37;;;;;;;0.00;0.00;;;;;;;6.55;100.00;98567.53;4967527;28;21134;-56
2022/11/29 06:11:06;;;;;;;0.00;0.00;;;;;;;6.50;100.00;98567.94;4966254;28;20230;-54
2022/11/29 06:13:49;;;;;;;0.00;0.00;;;;;;;6.55;100.00;98567.53;4961970;28;20224;-56
2022/11/29 06:16:38;;;;;;;0.00;0.00;;;;;;;6.59;100.00;98573.31;4965888;28;20229;-55
2022/11/29 06:19:46;;;;;;;0.10;0.10;;;;;;;6.62;100.00;98583.44;4963563;28;20225;-57
2022/11/29 06:22:44;;;;;;;0.00;0.00;;;;;;;6.53;100.00;98582.41;4963117;28;20218;-54
2022/11/29 06:25:23;;;;;;;0.00;0.00;;;;;;;6.55;100.00;98588.28;4963218;28;20232;-56
2022/11/29 06:28:06;;;;;;;0.00;0.00;;;;;;;6.54;100.00;98589.22;4963451;28;20240;-56
2022/11/29 06:30:52;;;;;;;0.00;0.00;;;;;;;6.57;100.00;98586.38;4963674;28;20230;-56
2022/11/29 06:33:23;;;;;;;0.00;0.00;;;;;;;6.60;100.00;98595.69;4962781;28;20217;-56
2022/11/29 06:35:59;;;;;;;0.00;0.00;;;;;;;6.58;100.00;98587.22;4965811;28;20247;-55
2022/11/29 06:38:30;;;;;;;0.00;0.00;;;;;;;6.58;100.00;98590.63;4961421;28;20629;-55
2022/11/29 06:40:58;;;;;;;0.00;0.00;;;;;;;6.60;100.00;98601.69;4965740;28;20249;-56
2022/11/29 06:43:28;;;;;;;0.00;0.00;;;;;;;6.55;100.00;98596.06;4961959;28;20714;-54
2022/11/29 06:46:00;;;;;;;0.00;0.00;;;;;;;6.55;100.00;98600.44;4965046;28;20237;-56
2022/11/29 06:48:30;;;;;;;0.00;0.00;;;;;;;6.56;100.00;98596.91;4962776;28;20222;-56
2022/11/29 06:51:03;;;;;;;0.00;0.00;;;;;;;6.52;100.00;98604.09;4963821;28;20229;-56
2022/11/29 06:53:39;;;;;;;0.07;0.07;;;;;;;6.53;100.00;98610.13;4952983;28;20230;-58
2022/11/29 06:56:21;;;;;;;0.00;0.00;;;;;;;6.53;100.00;98604.94;4960664;28;20233;-57
2022/11/29 06:58:58;;;;;;;0.00;0.00;;;;;;;6.56;100.00;98608.09;4962064;28;20242;-56
2022/11/29 07:01:33;;;;;;;0.00;0.00;;;;;;;6.57;100.00;98609.72;4959709;28;20689;-55
2022/11/29 07:04:18;;;;;;;0.07;0.07;;;;;;;6.56;100.00;98610.69;4964252;28;20244;-54
2022/11/29 07:06:45;;;;;;;0.03;0.03;;;;;;;6.54;100.00;98611.75;4962198;28;20244;-54
2022/11/29 07:09:16;;;;;;;0.00;0.00;;;;;;;6.55;100.00;98614.22;4964571;28;20281;-55
2022/11/29 07:11:44;;;;;;;0.00;0.00;;;;;;;6.62;100.00;98615.38;4961637;28;20226;-55
2022/11/29 07:14:12;;;;;;;0.00;0.00;;;;;;;6.58;100.00;98615.75;4963799;28;20244;-55
2022/11/29 07:16:48;;;;;;;0.00;0.00;;;;;;;6.58;100.00;98620.94;4963901;28;20245;-54
2022/11/29 07:19:23;;;;;;;0.00;0.00;;;;;;;6.61;100.00;98618.09;4969662;28;20229;-55
2022/11/29 07:21:57;;;;;;;0.00;0.00;;;;;;;6.57;100.00;98625.28;4966802;28;20252;-56
2022/11/29 07:24:46;;;;;;;0.00;0.00;;;;;;;6.54;100.00;98622.13;4965457;28;20276;-55
2022/11/29 07:27:19;;;;;;;0.00;0.00;;;;;;;6.57;100.00;98625.28;4968787;28;20222;-56
2022/11/29 07:30:02;;;;;;;0.00;0.00;;;;;;;6.58;100.00;98629.53;4966856;28;20252;-55
2022/11/29 07:32:42;;;;;;;0.00;0.00;;;;;;;6.58;100.00;98626.94;4965109;28;20633;-55
2022/11/29 07:35:16;;;;;;;0.00;0.00;;;;;;;6.61;100.00;98637.06;4967980;28;20225;-54
2022/11/29 07:37:57;;;;;;;0.00;0.00;;;;;;;6.55;100.00;98634.97;4949474;28;20231;-55
2022/11/29 07:40:32;;;;;;;0.00;0.00;;;;;;;6.58;100.00;98632.13;4965194;28;20859;-56
2022/11/29 07:43:14;;;;;;;0.00;0.00;;;;;;;6.59;100.00;98638.16;4967886;28;20296;-55
2022/11/29 07:45:40;;;;;;;0.00;0.00;;;;;;;6.58;100.00;98634.72;4965710;28;20602;-55
2022/11/29 07:48:07;;;;;;;0.00;0.00;;;;;;;6.57;100.00;98635.66;4968036;28;20653;-53
2022/11/29 07:50:35;;;;;;;0.00;0.00;;;;;;;6.55;100.00;98640.16;4965100;28;20258;-54
2022/11/29 07:53:01;;;;;;;0.00;0.00;;;;;;;6.55;100.00;98639.34;4967932;28;20238;-53
2022/11/29 07:55:31;;;;;;;0.00;0.00;;;;;;;6.59;100.00;98635.56;4965214;28;20284;-53
2022/11/29 07:57:57;;;;;;;0.00;0.00;;;;;;;6.56;100.00;98641.78;4967497;28;20237;-55
2022/11/29 08:00:24;;;;;;;0.00;0.00;;;;;;;6.56;100.00;98644.41;4963901;28;20225;-53
2022/11/29 08:02:51;;;;;;;0.00;0.00;;;;;;;6.58;100.00;98647.69;4968055;28;20248;-54
2022/11/29 08:05:18;;;;;;;0.00;0.00;;;;;;;6.55;100.00;98647.13;4964185;28;20225;-54
2022/11/29 08:07:45;;;;;;;0.10;0.10;;;;;;;6.53;100.00;98651.63;4968474;28;20288;-54
2022/11/29 08:10:14;;;;;;;0.00;0.00;;;;;;;6.54;100.00;98655.84;4968216;28;20221;-53
2022/11/29 08:12:47;;;;;;;0.00;0.00;;;;;;;6.53;100.00;98649.81;4964130;28;20252;-54
2022/11/29 08:15:14;;;;;;;0.00;0.00;;;;;;;6.57;100.00;98656.41;4967434;28;20289;-54
2022/11/29 08:17:41;;;;;;;0.00;0.00;;;;;;;6.60;100.00;98655.34;4965438;28;20593;-55
2022/11/29 08:20:09;;;;;;;0.00;0.00;;;;;;;6.63;100.00;98658.50;4967955;28;20641;-55
2022/11/29 08:22:36;;;;;;;0.00;0.00;;;;;;;6.74;100.00;98667.19;4964963;28;20234;-55
2022/11/29 08:25:03;;;;;;;0.00;0.00;;;;;;;6.59;100.00;98664.09;4966141;28;20222;-53
2022/11/29 08:27:30;;;;;;;0.00;0.00;;;;;;;6.63;100.00;98670.66;4963791;28;20723;-53
2022/11/29 08:29:58;;;;;;;0.00;0.00;;;;;;;6.65;100.00;98667.00;4963683;28;20233;-53
2022/11/29 08:32:25;;;;;;;0.00;0.00;;;;;;;6.65;100.00;98669.59;4964316;28;20225;-54
2022/11/29 08:34:52;;;;;;;0.00;0.00;;;;;;;6.74;100.00;98670.63;4967018;28;20238;-54
2022/11/29 08:37:18;;;;;;;0.00;0.00;;;;;;;6.75;100.00;98674.03;4964867;28;20234;-54
2022/11/29 08:39:45;;;;;;;0.00;0.00;;;;;;;6.77;100.00;98672.97;4967477;28;20233;-54
2022/11/29 08:42:12;;;;;;;0.00;0.00;;;;;;;6.77;100.00;98675.56;4967222;28;20233;-53
2022/11/29 08:44:38;;;;;;;0.00;0.00;;;;;;;6.75;100.00;98680.06;4962662;28;20230;-54
2022/11/29 08:50:03;;;;;;;0.00;0.00;;;;;;;6.78;100.00;98689.34;4964817;28;20733;-54
2022/11/29 08:55:15;;;;;;;0.00;0.00;;;;;;;6.80;100.00;98695.22;4967042;28;20230;-55
2022/11/29 08:57:42;;;;;;;0.00;0.00;;;;;;;6.85;100.00;98690.50;4963417;28;20237;-54
2022/11/29 09:00:10;;;;;;;0.00;0.00;;;;;;;6.82;100.00;98688.16;4966856;28;20873;-54
2022/11/29 09:02:38;;;;;;;0.00;0.00;;;;;;;6.85;100.00;98693.09;4962795;28;20280;-53
2022/11/29 09:05:06;;;;;;;0.00;0.00;;;;;;;6.85;100.00;98685.31;4966404;28;20240;-55
2022/11/29 09:07:33;;;;;;;0.00;0.00;;;;;;;6.84;100.00;98696.63;4963729;28;20218;-54
2022/11/29 09:10:04;;;;;;;0.00;0.00;;;;;;;6.84;100.00;98708.78;4965728;28;20234;-55
2022/11/29 09:12:32;;;;;;;0.00;0.00;;;;;;;6.84;100.00;98701.00;4964114;28;20261;-56
2022/11/29 09:15:04;;;;;;;0.00;0.00;;;;;;;6.89;100.00;98704.06;4965950;28;20332;-56
2022/11/29 09:17:31;;;;;;;0.00;0.00;;;;;;;6.92;100.00;98707.22;4964183;28;20226;-55
2022/11/29 09:19:58;;;;;;;0.10;0.10;;;;;;;6.86;100.00;98706.91;4969460;28;20229;-54
2022/11/29 09:22:25;;;;;;;0.00;0.00;;;;;;;6.83;100.00;98715.75;4966381;28;20229;-53
2022/11/29 09:24:52;;;;;;;0.00;0.00;;;;;;;6.86;100.00;98712.09;4966640;28;20234;-54
2022/11/29 09:27:18;;;;;;;0.00;0.00;;;;;;;6.92;100.00;98709.81;4966317;28;20224;-54
2022/11/29 09:29:45;;;;;;;0.07;0.07;;;;;;;6.98;100.00;98715.44;4967071;28;20238;-53
2022/11/29 09:32:12;;;;;;;0.00;0.00;;;;;;;7.06;100.00;98720.81;4966937;28;20233;-53
2022/11/29 09:34:40;;;;;;;0.00;0.00;;;;;;;7.10;100.00;98722.22;4963100;28;20311;-54
2022/11/29 09:37:08;;;;;;;0.00;0.00;;;;;;;7.15;100.00;98727.88;4965766;28;20248;-54
2022/11/29 09:39:35;;;;;;;0.00;0.00;;;;;;;7.17;100.00;98725.13;4962968;28;20705;-54
2022/11/29 09:42:32;;;;;;;0.00;0.00;;;;;;;7.19;100.00;98731.00;4966038;28;20579;-54
2022/11/29 09:45:03;;;;;;;0.00;0.00;;;;;;;7.02;100.00;98732.41;4963096;28;20250;-54
2022/11/29 09:48:04;;;;;;;0.00;0.00;;;;;;;7.09;100.00;98733.56;4963121;28;20304;-55
2022/11/29 09:50:35;;;;;;;0.00;0.00;;;;;;;7.15;100.00;98735.66;4962217;28;20237;-54
2022/11/29 09:53:17;;;;;;;0.00;0.00;;;;;;;7.20;100.00;98730.91;4965907;28;20234;-54
2022/11/29 09:56:04;;;;;;;0.00;0.00;;;;;;;7.30;100.00;98732.75;4963297;28;20233;-54
2022/11/29 09:58:36;;;;;;;0.03;0.03;;;;;;;7.32;100.00;98726.47;4961916;28;20227;-55
2022/11/29 10:01:07;;;;;;;0.00;0.00;;;;;;;7.40;100.00;98733.63;4965403;28;20242;-53
2022/11/29 10:03:38;;;;;;;0.00;0.00;;;;;;;7.32;100.00;98739.44;4962832;28;20225;-54
2022/11/29 10:06:13;;;;;;;0.00;0.00;;;;;;;7.31;100.00;98726.59;4965165;28;20230;-54
2022/11/29 10:08:47;;;;;;;0.00;0.00;;;;;;;7.22;100.00;98734.19;4962425;28;20241;-56
2022/11/29 10:11:22;;;;;;;0.00;0.00;;;;;;;7.22;100.00;98739.38;4965040;28;20233;-53
2022/11/29 10:13:54;;;;;;;0.00;0.00;;;;;;;7.20;100.00;98737.84;4962394;28;20241;-55
2022/11/29 10:16:26;;;;;;;0.00;0.00;;;;;;;7.28;100.00;98738.03;4962495;28;20217;-53
2022/11/29 10:18:58;;;;;;;0.00;0.00;;;;;;;7.18;100.00;98748.38;4964424;28;20260;-54
2022/11/29 10:21:29;;;;;;;0.00;0.00;;;;;;;7.17;100.00;98745.91;4952256;28;20645;-55
2022/11/29 10:24:02;;;;;;;0.00;0.00;;;;;;;7.11;100.00;98744.63;4964249;28;20649;-55
2022/11/29 10:26:29;;;;;;;0.03;0.03;;;;;;;7.20;100.00;98735.25;4961252;28;20225;-54
2022/11/29 10:28:56;;;;;;;0.00;0.00;;;;;;;7.27;100.00;98733.81;4965709;28;20642;-55
2022/11/29 10:31:26;;;;;;;0.00;0.00;;;;;;;7.22;100.00;98733.34;4962269;28;20237;-55
2022/11/29 10:33:54;;;;;;;0.03;0.03;;;;;;;7.24;100.00;98737.50;4964552;28;20650;-56
2022/11/29 10:36:27;;;;;;;0.00;0.00;;;;;;;7.30;100.00;98737.94;4962441;28;20214;-55
2022/11/29 10:38:58;;;;;;;0.00;0.00;;;;;;;7.24;100.00;98739.25;4964955;28;20249;-56
2022/11/29 10:41:25;;;;;;;0.00;0.00;;;;;;;7.10;100.00;98735.19;4961377;28;20761;-54
2022/11/29 10:43:56;;;;;;;0.00;0.00;;;;;;;7.05;100.00;98738.16;4964649;28;20555;-54
2022/11/29 10:46:30;;;;;;;0.03;0.03;;;;;;;7.00;100.00;98737.72;4951902;28;20277;-53
2022/11/29 10:48:59;;;;;;;0.10;0.10;;;;;;;7.01;100.00;98734.16;4964987;28;20633;-53
2022/11/29 10:51:25;;;;;;;0.00;0.00;;;;;;;7.06;100.00;98739.00;4961139;28;20228;-54
2022/11/29 10:53:54;;;;;;;0.10;0.10;;;;;;;7.07;100.00;98736.25;4964226;28;20242;-56
2022/11/29 10:56:28;;;;;;;0.00;0.00;;;;;;;7.12;100.00;98735.91;4962159;28;20308;-55
2022/11/29 10:58:57;;;;;;;0.00;0.00;;;;;;;7.13;100.00;98732.34;4965158;28;20246;-55
2022/11/29 11:01:27;;;;;;;0.00;0.00;;;;;;;7.15;100.00;98740.84;4977026;28;20233;-56
2022/11/29 11:03:57;;;;;;;0.00;0.00;;;;;;;7.24;100.00;98732.31;4967383;28;20233;-54
2022/11/29 11:06:26;;;;;;;0.00;0.00;;;;;;;7.30;100.00;98727.56;4962286;28;20532;-54
2022/11/29 11:08:54;;;;;;;0.00;0.00;;;;;;;7.35;100.00;98736.59;4965313;28;20245;-54
2022/11/29 11:11:30;;;;;;;0.00;0.00;;;;;;;7.39;100.00;98737.97;4961972;28;20225;-55
2022/11/29 11:13:59;;;;;;;0.00;0.00;;;;;;;7.44;100.00;98734.19;4964184;28;20229;-54
2022/11/29 11:16:26;;;;;;;0.00;0.00;;;;;;;7.44;100.00;98735.00;4962251;28;20249;-54
2022/11/29 11:18:53;;;;;;;0.00;0.00;;;;;;;7.44;100.00;98732.38;4970561;28;20690;-55
2022/11/29 11:21:24;;;;;;;0.00;0.00;;;;;;;7.23;100.00;98725.47;4961636;28;20225;-54
2022/11/29 11:23:56;;;;;;;0.00;0.00;;;;;;;7.37;100.00;98734.69;4964199;28;20238;-55
2022/11/29 11:26:24;;;;;;;0.00;0.00;;;;;;;7.35;100.00;98730.59;4962577;28;20218;-56
2022/11/29 11:28:57;;;;;;;0.00;0.00;;;;;;;7.35;100.00;98735.78;4964816;28;20300;-55
2022/11/29 11:31:33;;;;;;;0.00;0.00;;;;;;;7.23;100.00;98728.06;4962010;28;20694;-55
2022/11/29 11:34:25;;;;;;;0.00;0.00;;;;;;;7.35;100.00;98731.41;4964198;28;20253;-53
2022/11/29 11:36:52;;;;;;;0.00;0.00;;;;;;;7.47;100.00;98732.13;4961831;28;20265;-55
2022/11/29 11:39:21;;;;;;;0.00;0.00;;;;;;;7.53;100.00;98733.41;4961363;28;20320;-54
2022/11/29 11:44:39;;;;;;;0.00;0.00;;;;;;;7.61;100.00;98736.19;4961563;28;20283;-55
2022/11/29 11:47:12;;;;;;;0.00;0.00;;;;;;;7.54;100.00;98741.06;4964849;28;20225;-56
2022/11/29 11:49:47;;;;;;;0.00;0.00;;;;;;;7.58;100.00;98738.22;4961976;28;20252;-56
2022/11/29 11:52:19;;;;;;;0.00;0.00;;;;;;;7.44;100.00;98745.38;4964113;28;20240;-54
2022/11/29 11:54:50;;;;;;;0.00;0.00;;;;;;;7.43;100.00;98748.94;4961503;28;20629;-59
2022/11/29 11:57:18;;;;;;;0.00;0.00;;;;;;;7.51;100.00;98753.50;4963093;28;20234;-55
2022/11/29 11:59:49;;;;;;;0.00;0.00;;;;;;;7.52;100.00;98755.94;4963165;28;20289;-55
2022/11/29 12:02:26;;;;;;;0.00;0.00;;;;;;;7.43;100.00;98748.13;4964543;28;20288;-56
2022/11/29 12:04:54;;;;;;;0.00;0.00;;;;;;;7.43;100.00;98750.72;4965143;28;20244;-54
2022/11/29 12:07:28;;;;;;;0.00;0.00;;;;;;;7.47;100.00;98749.50;4965075;28;20308;-54
2022/11/29 12:09:59;;;;;;;0.00;0.00;;;;;;;7.60;100.00;98754.50;4967986;28;20230;-56
2022/11/29 12:12:28;;;;;;;0.00;0.00;;;;;;;7.64;100.00;98758.47;4965057;28;20217;-56
2022/11/29 12:14:59;;;;;;;0.00;0.00;;;;;;;7.59;100.00;98758.03;4967676;28;20230;-56
2022/11/29 12:17:34;;;;;;;0.10;0.10;;;;;;;7.59;100.00;98761.47;4964748;28;20761;-56
2022/11/29 12:20:15;;;;;;;0.00;0.00;;;;;;;7.60;100.00;98752.72;4967830;28;20697;-54